Time;durP1;ratioP1;P1;durP2;ratioP2;P2;SDS_P1;SDS_P2;PMS_P1;PMS_P2;Temp;Humidity;BMP_temperature;BMP_pressure;BME280_temperature;BME280_humidity;BME280_pressure;Samples;Min_cycle;Max_cycle;Signal;HPM_P1;HPM_P2
2023/11/28 00:01:24;;;;;;;52.65;24.83;;;;;;;0.89;100.00;97991.41;5064082;28;20029;-70
2023/11/28 00:03:53;;;;;;;50.72;24.58;;;;;;;0.90;100.00;97987.88;5102562;27;20064;-70
2023/11/28 00:06:22;;;;;;;50.08;23.83;;;;;;;0.86;100.00;97979.34;5071801;28;20076;-70
2023/11/28 00:08:51;;;;;;;50.67;24.17;;;;;;;0.95;100.00;97993.69;5067514;28;20544;-69
2023/11/28 00:11:21;;;;;;;55.08;25.75;;;;;;;0.92;100.00;97986.91;5048840;28;20044;-70
2023/11/28 00:13:50;;;;;;;54.72;26.55;;;;;;;0.99;100.00;97990.03;5072764;28;20147;-70
2023/11/28 00:16:21;;;;;;;;;;;;;;;1.00;100.00;97984.75;5072172;28;20044;-70
2023/11/28 00:18:51;;;;;;;51.90;24.23;;;;;;;1.02;100.00;97985.53;5068315;28;19936;-69
2023/11/28 00:21:20;;;;;;;53.40;25.00;;;;;;;1.05;100.00;97984.56;5067695;28;20046;-70
2023/11/28 00:23:48;;;;;;;52.22;24.77;;;;;;;1.02;100.00;97969.91;5068402;28;20063;-69
2023/11/28 00:26:16;;;;;;;50.88;23.38;;;;;;;1.04;100.00;97975.91;5056911;28;20493;-71
2023/11/28 00:28:55;;;;;;;55.00;24.08;;;;;;;1.05;100.00;97981.94;5040948;28;20045;-71
2023/11/28 00:31:27;;;;;;;50.05;23.35;;;;;;;1.04;100.00;97973.28;5063042;28;20045;-71
2023/11/28 00:33:55;;;;;;;55.55;24.10;;;;;;;1.04;100.00;97969.84;5070190;28;20055;-71
2023/11/28 00:36:23;;;;;;;55.20;24.08;;;;;;;1.05;100.00;97971.53;5055276;28;20288;-72
2023/11/28 00:38:53;;;;;;;53.53;23.17;;;;;;;1.08;100.00;97967.94;5070623;28;20139;-69
2023/11/28 00:41:21;;;;;;;54.78;24.45;;;;;;;1.09;100.00;97965.25;5080775;28;20070;-71
2023/11/28 00:43:49;;;;;;;52.15;24.38;;;;;;;1.12;100.00;97959.03;5083802;28;20059;-68
2023/11/28 00:46:19;;;;;;;51.90;23.40;;;;;;;1.14;100.00;97954.59;5073751;28;20048;-70
2023/11/28 00:48:49;;;;;;;52.67;24.00;;;;;;;1.12;100.00;97951.22;5071315;28;20058;-69
2023/11/28 00:51:17;;;;;;;51.88;22.95;;;;;;;1.14;100.00;97955.44;5061595;28;20045;-72
2023/11/28 00:53:46;;;;;;;55.45;24.75;;;;;;;1.17;100.00;97951.84;5071495;28;20487;-72
2023/11/28 00:56:21;;;;;;;52.13;23.48;;;;;;;1.16;100.00;97950.16;5055900;28;20052;-70
2023/11/28 00:58:50;;;;;;;58.92;24.33;;;;;;;1.17;100.00;97951.84;5066257;28;20052;-72
2023/11/28 01:01:18;;;;;;;51.92;22.52;;;;;;;1.22;100.00;97949.88;5061490;28;21103;-70
2023/11/28 01:03:47;;;;;;;52.42;23.85;;;;;;;1.25;100.00;97945.38;5071478;28;20059;-70
2023/11/28 01:06:16;;;;;;;50.90;22.63;;;;;;;1.24;100.00;97942.81;5069817;28;20174;-68
2023/11/28 01:08:47;;;;;;;56.45;24.50;;;;;;;1.30;100.00;97958.16;5073879;28;20408;-71
2023/11/28 01:11:16;;;;;;;52.00;22.35;;;;;;;1.31;100.00;97955.47;5062308;28;20082;-70
2023/11/28 01:13:45;;;;;;;56.37;23.47;;;;;;;1.33;100.00;97958.00;5070687;28;20404;-72
2023/11/28 01:16:13;;;;;;;54.92;23.38;;;;;;;1.32;100.00;97954.56;5072322;28;20048;-70
2023/11/28 01:18:42;;;;;;;49.65;22.48;;;;;;;1.34;100.00;97957.09;5053975;28;20048;-70
2023/11/28 01:21:10;;;;;;;51.22;23.17;;;;;;;1.37;100.00;97960.41;5062490;28;20052;-70
2023/11/28 01:23:39;;;;;;;49.88;22.92;;;;;;;1.38;100.00;97953.44;5068568;28;20333;-70
2023/11/28 01:26:07;;;;;;;55.95;23.98;;;;;;;1.32;100.00;97946.75;5070506;28;20045;-70
2023/11/28 01:28:35;;;;;;;49.70;23.25;;;;;;;1.36;100.00;97947.44;5070972;28;20068;-70
2023/11/28 01:31:04;;;;;;;51.83;22.42;;;;;;;1.38;100.00;97949.06;5048949;28;20143;-69
2023/11/28 01:33:36;;;;;;;48.58;22.77;;;;;;;1.36;100.00;97944.84;5073923;28;20048;-69
2023/11/28 01:36:05;;;;;;;51.40;23.10;;;;;;;1.17;100.00;97915.34;5076495;28;20248;-71
2023/11/28 01:38:33;;;;;;;48.95;22.50;;;;;;;1.41;100.00;97955.88;5072056;28;20048;-69
2023/11/28 01:41:04;;;;;;;53.35;22.77;;;;;;;1.42;100.00;97948.91;5065803;28;20048;-71
2023/11/28 01:43:32;;;;;;;52.83;23.48;;;;;;;1.39;100.00;97950.75;5072782;28;20044;-71
2023/11/28 01:46:07;;;;;;;47.78;21.30;;;;;;;1.36;100.00;97948.28;5070972;28;20040;-70
2023/11/28 01:48:40;;;;;;;49.47;23.27;;;;;;;1.39;100.00;97955.97;5075843;28;20439;-69
2023/11/28 01:51:10;;;;;;;50.83;23.33;;;;;;;1.40;100.00;97960.25;5042759;28;20057;-69
2023/11/28 01:53:38;;;;;;;46.77;21.47;;;;;;;1.38;100.00;97962.09;5085777;28;20056;-71
2023/11/28 01:56:15;;;;;;;50.25;22.70;;;;;;;1.44;100.00;97965.28;5073534;28;20144;-70
2023/11/28 01:58:43;;;;;;;50.80;22.67;;;;;;;1.48;100.00;97972.06;5083757;28;20163;-73
2023/11/28 02:01:11;;;;;;;43.00;20.60;;;;;;;1.48;100.00;97969.47;5068047;28;20539;-71
2023/11/28 02:03:42;;;;;;;52.97;23.42;;;;;;;1.48;100.00;97977.28;5071790;28;20044;-71
2023/11/28 02:06:12;;;;;;;54.88;23.08;;;;;;;1.47;100.00;97973.81;5072950;28;20066;-72
2023/11/28 02:08:42;;;;;;;52.38;23.88;;;;;;;1.51;100.00;97977.13;5068073;28;20047;-69
2023/11/28 02:11:12;;;;;;;52.88;23.25;;;;;;;1.47;100.00;97984.25;5047022;28;20528;-70
2023/11/28 02:13:41;;;;;;;53.95;22.45;;;;;;;1.48;100.00;97974.66;5069593;28;20040;-69
2023/11/28 02:16:12;;;;;;;51.92;22.75;;;;;;;1.56;100.00;97981.22;5057022;28;20040;-70
2023/11/28 02:18:40;;;;;;;;;;;;;;;1.60;100.00;97981.88;5072699;28;20041;-70
2023/11/28 02:21:10;;;;;;;45.00;21.33;;;;;;;1.58;100.00;97975.91;5081405;28;20110;-71
2023/11/28 02:23:38;;;;;;;49.60;22.08;;;;;;;1.54;100.00;97977.84;5072424;28;20140;-70
2023/11/28 02:26:17;;;;;;;48.65;20.92;;;;;;;1.52;100.00;97982.28;5076707;28;20101;-70
2023/11/28 02:28:46;;;;;;;47.42;21.77;;;;;;;1.44;100.00;97973.97;5079075;28;20102;-72
2023/11/28 02:31:13;;;;;;;45.15;19.77;;;;;;;1.45;100.00;97991.31;5073989;28;20068;-71
2023/11/28 02:33:44;;;;;;;46.78;20.42;;;;;;;1.46;100.00;97993.00;5072864;28;20044;-71
2023/11/28 02:36:14;;;;;;;37.88;18.02;;;;;;;1.47;100.00;97999.06;5072825;28;20135;-71
2023/11/28 02:38:42;;;;;;;39.38;17.25;;;;;;;1.31;100.00;97986.75;5056331;28;20171;-71
2023/11/28 02:41:12;;;;;;;38.58;16.85;;;;;;;1.26;100.00;97996.56;5067030;28;20041;-70
2023/11/28 02:43:42;;;;;;;31.77;15.13;;;;;;;1.21;100.00;97990.72;5059402;28;20504;-71
2023/11/28 02:46:14;;;;;;;31.70;14.70;;;;;;;1.21;100.00;97995.09;5061374;28;20109;-71
2023/11/28 02:48:44;;;;;;;32.08;15.10;;;;;;;1.19;100.00;98002.16;5072110;28;20072;-70
2023/11/28 02:51:19;;;;;;;27.55;13.57;;;;;;;1.15;100.00;97998.84;5061317;28;20566;-72
2023/11/28 02:53:51;;;;;;;26.30;13.00;;;;;;;0.98;100.00;97977.94;5074038;28;20416;-70
2023/11/28 02:56:19;;;;;;;25.17;13.18;;;;;;;1.07;100.00;97997.53;5072420;28;20047;-72
2023/11/28 02:58:50;;;;;;;26.48;13.13;;;;;;;1.04;100.00;98004.56;5073546;28;20338;-70
2023/11/28 03:01:20;;;;;;;25.35;12.82;;;;;;;1.02;100.00;98006.38;5063760;28;20112;-70
2023/11/28 03:03:48;;;;;;;22.05;11.27;;;;;;;0.98;100.00;98002.22;5076497;28;20053;-70
2023/11/28 03:06:16;;;;;;;22.23;11.63;;;;;;;1.04;100.00;98014.13;5069043;28;20045;-70
2023/11/28 03:08:46;;;;;;;21.17;11.32;;;;;;;1.00;100.00;98016.03;5070843;28;20052;-70
2023/11/28 03:11:14;;;;;;;21.45;11.25;;;;;;;1.00;100.00;98021.25;5067803;28;20075;-70
2023/11/28 03:13:42;;;;;;;19.98;10.13;;;;;;;0.96;100.00;98017.09;5075228;28;20036;-70
2023/11/28 03:16:14;;;;;;;19.63;10.63;;;;;;;0.91;100.00;98005.19;5073282;28;20078;-70
2023/11/28 03:18:42;;;;;;;19.25;10.25;;;;;;;0.92;100.00;98019.91;5066848;28;20051;-70
2023/11/28 03:21:10;;;;;;;18.17;9.88;;;;;;;0.84;100.00;98016.81;5047960;28;20056;-69
2023/11/28 03:23:40;;;;;;;18.85;9.32;;;;;;;0.71;100.00;98013.91;5070712;28;20063;-70
2023/11/28 03:26:08;;;;;;;16.15;8.45;;;;;;;0.77;100.00;98024.06;5069434;28;20072;-70
2023/11/28 03:28:36;;;;;;;15.40;8.18;;;;;;;0.76;100.00;98027.59;5072798;28;20052;-70
2023/11/28 03:31:05;;;;;;;15.70;8.55;;;;;;;0.74;100.00;98021.59;5067398;28;20044;-69
2023/11/28 03:33:37;;;;;;;16.67;8.48;;;;;;;0.76;100.00;98024.16;5071602;28;20055;-70
2023/11/28 03:36:05;;;;;;;14.60;7.50;;;;;;;0.79;100.00;98035.25;5070419;28;20531;-70
2023/11/28 03:38:37;;;;;;;15.30;8.00;;;;;;;0.78;100.00;98035.34;5071644;28;20075;-69
2023/11/28 03:41:10;;;;;;;13.45;7.40;;;;;;;0.77;100.00;98038.84;5062055;28;20276;-70
2023/11/28 03:43:39;;;;;;;14.68;7.78;;;;;;;0.83;100.00;98048.97;5069257;28;20040;-70
2023/11/28 03:46:07;;;;;;;11.45;5.97;;;;;;;0.87;100.00;98050.53;5071685;28;20036;-70
2023/11/28 03:48:36;;;;;;;10.02;5.25;;;;;;;0.88;100.00;98058.28;5059881;28;20083;-70
2023/11/28 03:51:05;;;;;;;9.70;5.47;;;;;;;0.83;100.00;98042.00;5048298;28;20048;-69
2023/11/28 03:53:33;;;;;;;8.00;4.63;;;;;;;0.86;100.00;98054.06;5065995;28;20410;-70
2023/11/28 03:56:07;;;;;;;9.10;4.80;;;;;;;0.84;100.00;98055.88;5071377;28;20071;-70
2023/11/28 03:58:36;;;;;;;9.68;4.88;;;;;;;0.84;100.00;98061.94;5072751;28;20068;-70
2023/11/28 04:01:04;;;;;;;7.70;4.65;;;;;;;0.84;100.00;98059.34;5063890;28;20052;-69
2023/11/28 04:03:38;;;;;;;7.60;4.45;;;;;;;0.83;100.00;98069.81;5071117;28;20041;-68
2023/11/28 04:06:06;;;;;;;7.68;4.15;;;;;;;0.80;100.00;98073.41;5075745;28;20369;-70
2023/11/28 04:08:35;;;;;;;8.25;3.90;;;;;;;0.82;100.00;98075.94;5060086;28;20052;-68
2023/11/28 04:11:04;;;;;;;6.68;4.32;;;;;;;0.82;100.00;98087.22;5050350;28;20086;-69
2023/11/28 04:13:33;;;;;;;9.73;4.32;;;;;;;0.81;100.00;98090.72;5088805;28;20056;-69
2023/11/28 04:16:01;;;;;;;9.43;4.30;;;;;;;0.79;100.00;98086.53;5078715;28;20048;-70
2023/11/28 04:18:31;;;;;;;7.43;4.15;;;;;;;0.79;100.00;98100.38;5074343;28;20061;-69
2023/11/28 04:21:05;;;;;;;;;;;;;;;0.81;100.00;98106.38;5070576;28;20070;-69
2023/11/28 04:23:36;;;;;;;5.35;3.15;;;;;;;0.81;100.00;98106.38;5054173;28;19920;-70
2023/11/28 04:26:06;;;;;;;5.78;3.17;;;;;;;0.84;100.00;98115.81;5073655;28;20052;-69
2023/11/28 04:28:38;;;;;;;5.07;3.20;;;;;;;0.85;100.00;98125.31;5073996;28;20068;-69
2023/11/28 04:31:17;;;;;;;3.80;2.83;;;;;;;0.85;100.00;98133.97;5066164;28;20052;-68
2023/11/28 04:33:55;;;;;;;4.25;2.92;;;;;;;0.88;100.00;98139.06;5072347;28;20082;-69
2023/11/28 04:36:29;;;;;;;4.72;2.88;;;;;;;0.88;100.00;98138.22;5050235;28;20045;-70
2023/11/28 04:38:59;;;;;;;4.05;3.03;;;;;;;0.85;100.00;98147.00;5072772;28;20106;-69
2023/11/28 04:41:35;;;;;;;4.85;3.30;;;;;;;0.86;100.00;98145.25;5049279;28;20060;-69
2023/11/28 04:44:03;;;;;;;5.63;2.80;;;;;;;0.91;100.00;98153.72;5083800;28;20416;-70
2023/11/28 04:46:32;;;;;;;4.55;2.53;;;;;;;0.91;100.00;98154.56;5073012;28;20044;-70
2023/11/28 04:49:01;;;;;;;3.58;2.60;;;;;;;0.93;100.00;98163.16;5071089;28;20505;-70
2023/11/28 04:51:30;;;;;;;5.60;2.83;;;;;;;0.94;100.00;98164.88;5060609;28;20052;-69
2023/11/28 04:53:58;;;;;;;4.18;2.95;;;;;;;0.97;100.00;98164.69;5049003;28;20044;-70
2023/11/28 04:56:27;;;;;;;3.85;2.67;;;;;;;1.01;100.00;98173.25;5067350;28;20041;-70
2023/11/28 04:59:02;;;;;;;3.25;2.38;;;;;;;1.04;100.00;98181.78;5069370;28;20079;-69
2023/11/28 05:01:32;;;;;;;2.65;1.90;;;;;;;1.04;100.00;98187.00;5046665;28;20151;-70
2023/11/28 05:04:02;;;;;;;2.38;1.67;;;;;;;1.05;100.00;98193.91;5069434;28;20388;-70
2023/11/28 05:06:33;;;;;;;2.55;1.90;;;;;;;1.11;100.00;98202.34;5068161;28;20052;-70
2023/11/28 05:09:03;;;;;;;;;;;;;;;1.14;100.00;98207.44;5073421;28;20064;-69
2023/11/28 05:11:31;;;;;;;1.95;1.70;;;;;;;1.12;100.00;98206.66;5069060;28;20097;-69
2023/11/28 05:14:00;;;;;;;2.58;1.60;;;;;;;1.14;100.00;98216.09;5072757;28;20047;-70
2023/11/28 05:16:30;;;;;;;3.53;1.60;;;;;;;1.16;100.00;98216.88;5072065;28;20083;-69
2023/11/28 05:19:15;;;;;;;1.90;1.20;;;;;;;1.19;100.00;98221.13;5072350;28;20059;-69
2023/11/28 05:21:46;;;;;;;1.73;1.20;;;;;;;1.20;100.00;98235.84;5058331;28;20052;-70
2023/11/28 05:24:14;;;;;;;3.10;1.50;;;;;;;1.21;100.00;98234.94;5083662;28;20497;-70
2023/11/28 05:26:45;;;;;;;3.25;1.10;;;;;;;1.24;100.00;98242.63;5053290;28;20041;-70
2023/11/28 05:29:15;;;;;;;1.08;0.70;;;;;;;1.23;100.00;98246.16;5056752;28;20049;-70
2023/11/28 05:31:44;;;;;;;1.27;0.85;;;;;;;1.26;100.00;98253.84;5047407;28;20045;-70
2023/11/28 05:34:12;;;;;;;1.15;0.88;;;;;;;1.24;100.00;98261.72;5073863;28;20384;-69
2023/11/28 05:36:43;;;;;;;1.27;0.80;;;;;;;1.23;100.00;98264.41;5070798;28;20132;-70
2023/11/28 05:39:15;;;;;;;2.45;0.90;;;;;;;1.22;100.00;98273.97;5053849;28;20044;-69
2023/11/28 05:41:43;;;;;;;2.00;0.82;;;;;;;1.25;100.00;98278.22;5045419;28;20534;-70
2023/11/28 05:44:13;;;;;;;1.65;0.77;;;;;;;1.23;100.00;98275.66;5069865;28;20048;-70
2023/11/28 05:46:42;;;;;;;1.45;0.50;;;;;;;1.24;100.00;98282.59;5074360;28;20052;-68
2023/11/28 05:49:11;;;;;;;1.60;0.77;;;;;;;1.25;100.00;98293.84;5070176;28;20040;-70
2023/11/28 05:51:41;;;;;;;1.30;0.63;;;;;;;1.22;100.00;98300.03;5062316;28;20136;-68
2023/11/28 05:54:10;;;;;;;0.30;0.30;;;;;;;1.19;100.00;98296.72;5051004;28;20123;-71
2023/11/28 05:56:39;;;;;;;1.52;0.50;;;;;;;1.22;100.00;98302.66;5068444;28;20537;-69
2023/11/28 05:59:10;;;;;;;1.23;0.40;;;;;;;1.20;100.00;98312.28;5052247;28;20563;-69
2023/11/28 06:01:57;;;;;;;1.25;0.45;;;;;;;1.15;100.00;98313.38;5045650;28;20589;-71
2023/11/28 06:04:29;;;;;;;0.63;0.50;;;;;;;1.11;100.00;98320.47;5102223;28;20072;-70
2023/11/28 06:07:00;;;;;;;1.08;0.47;;;;;;;1.14;100.00;98332.53;5055799;28;20041;-68
2023/11/28 06:09:28;;;;;;;1.70;0.68;;;;;;;1.14;100.00;98337.75;5072784;28;20059;-69
2023/11/28 06:11:59;;;;;;;0.95;0.55;;;;;;;1.14;100.00;98342.97;5065378;28;20369;-68
2023/11/28 06:14:32;;;;;;;0.60;0.60;;;;;;;1.17;100.00;98345.47;5087947;28;20128;-69
2023/11/28 06:17:02;;;;;;;0.93;0.80;;;;;;;1.14;100.00;98354.25;5058295;28;20140;-68
2023/11/28 06:19:31;;;;;;;0.80;0.80;;;;;;;1.15;100.00;98361.16;5082072;28;20049;-69
2023/11/28 06:21:59;;;;;;;1.13;0.70;;;;;;;1.13;100.00;98375.16;5061482;28;20049;-69
2023/11/28 06:24:28;;;;;;;1.35;0.90;;;;;;;1.08;100.00;98367.56;5084889;28;20059;-69
2023/11/28 06:26:56;;;;;;;1.08;0.98;;;;;;;1.04;100.00;98369.44;5069344;28;20501;-69
2023/11/28 06:29:25;;;;;;;0.85;0.85;;;;;;;0.99;100.00;98384.41;5056568;28;20032;-69
2023/11/28 06:31:56;;;;;;;1.20;0.90;;;;;;;0.97;100.00;98383.59;5071220;28;20143;-70
2023/11/28 06:34:26;;;;;;;1.55;1.45;;;;;;;0.94;100.00;98396.78;5087317;28;20554;-71
2023/11/28 06:36:58;;;;;;;1.50;1.40;;;;;;;0.95;100.00;98402.81;5086467;28;20052;-69
2023/11/28 06:39:27;;;;;;;3.08;1.20;;;;;;;0.93;100.00;98407.25;5073306;28;20497;-69
2023/11/28 06:41:56;;;;;;;1.40;1.30;;;;;;;0.89;100.00;98424.78;5068907;28;20055;-69
2023/11/28 06:44:27;;;;;;;2.00;1.30;;;;;;;0.85;100.00;98436.22;5073694;28;20040;-69
2023/11/28 06:47:03;;;;;;;3.10;1.80;;;;;;;0.87;100.00;98442.22;5082943;28;20040;-71
2023/11/28 06:49:31;;;;;;;1.80;1.70;;;;;;;0.89;100.00;98447.38;5073843;28;20135;-71
2023/11/28 06:52:01;;;;;;;3.25;1.90;;;;;;;0.89;100.00;98458.66;5069008;28;20102;-69
2023/11/28 06:54:30;;;;;;;4.82;2.08;;;;;;;0.86;100.00;98473.53;5072432;28;20068;-70
2023/11/28 06:56:58;;;;;;;2.53;2.30;;;;;;;0.89;100.00;98486.47;5073043;28;20110;-71
2023/11/28 06:59:29;;;;;;;2.40;2.20;;;;;;;0.88;100.00;98488.22;5074917;28;20060;-69
2023/11/28 07:01:58;;;;;;;3.97;2.63;;;;;;;0.91;100.00;98497.69;5070326;28;20048;-70
2023/11/28 07:04:27;;;;;;;3.03;2.10;;;;;;;0.91;100.00;98495.06;5072877;28;20040;-70
2023/11/28 07:06:55;;;;;;;2.80;2.40;;;;;;;0.90;100.00;98503.78;5072460;28;20047;-69
2023/11/28 07:09:24;;;;;;;2.25;2.10;;;;;;;0.94;100.00;98513.19;5071911;28;20063;-70
2023/11/28 07:11:54;;;;;;;3.80;2.42;;;;;;;0.95;100.00;98525.28;5063649;28;20048;-69
2023/11/28 07:14:24;;;;;;;1.88;1.48;;;;;;;0.88;100.00;98527.31;5069229;28;20318;-69
2023/11/28 07:16:53;;;;;;;3.00;2.70;;;;;;;0.84;100.00;98530.91;5068227;28;20117;-69
2023/11/28 07:19:27;;;;;;;3.00;2.70;;;;;;;0.93;100.00;98554.03;5073055;28;20071;-69
2023/11/28 07:21:56;;;;;;;2.50;2.30;;;;;;;0.94;100.00;98576.59;5068224;28;20040;-68
2023/11/28 07:24:26;;;;;;;2.75;2.40;;;;;;;0.95;100.00;98567.00;5069147;28;20046;-70
2023/11/28 07:26:57;;;;;;;3.10;2.80;;;;;;;0.99;100.00;98579.00;5054456;28;20079;-69
2023/11/28 07:29:24;;;;;;;2.60;2.38;;;;;;;1.02;100.00;98579.75;5069830;28;20042;-68
2023/11/28 07:31:54;;;;;;;3.15;2.85;;;;;;;1.05;100.00;98595.28;5064728;28;20403;-68
2023/11/28 07:34:27;;;;;;;3.28;2.97;;;;;;;1.04;100.00;98604.00;5070832;28;20052;-68
2023/11/28 07:36:56;;;;;;;3.10;2.60;;;;;;;0.97;100.00;98599.06;5054769;28;20059;-69
2023/11/28 07:39:25;;;;;;;3.42;2.35;;;;;;;1.02;100.00;98608.41;5070065;28;20040;-68
2023/11/28 07:41:54;;;;;;;4.63;3.50;;;;;;;0.95;100.00;98606.09;5043839;28;20162;-69
2023/11/28 07:44:22;;;;;;;3.50;3.20;;;;;;;1.09;100.00;98616.88;5084850;28;20056;-69
2023/11/28 07:46:51;;;;;;;5.18;3.30;;;;;;;1.08;100.00;98638.63;5072994;28;20059;-68
2023/11/28 07:49:24;;;;;;;3.47;3.13;;;;;;;1.05;100.00;98636.97;5083237;28;20044;-70
2023/11/28 07:51:53;;;;;;;4.38;3.28;;;;;;;1.05;100.00;98636.13;5067436;28;20068;-69
2023/11/28 07:54:21;;;;;;;4.65;3.28;;;;;;;1.07;100.00;98643.91;5074908;28;20040;-70
2023/11/28 07:56:55;;;;;;;5.72;3.85;;;;;;;1.06;100.00;98648.25;5081941;28;20044;-70
2023/11/28 07:59:23;;;;;;;4.60;3.60;;;;;;;1.02;100.00;98652.72;5072997;28;20048;-70
2023/11/28 08:01:53;;;;;;;3.50;2.85;;;;;;;1.09;100.00;98668.16;5039981;28;20156;-70
2023/11/28 08:04:27;;;;;;;3.60;3.30;;;;;;;1.13;100.00;98674.94;5074185;28;20056;-71
2023/11/28 08:09:50;;;;;;;3.33;3.03;;;;;;;1.15;100.00;98686.16;5071821;28;20131;-68
2023/11/28 08:12:18;;;;;;;3.10;2.55;;;;;;;1.11;100.00;98681.97;5064920;28;20048;-69
2023/11/28 08:14:47;;;;;;;4.25;2.97;;;;;;;1.10;100.00;98693.31;5069651;28;20040;-70
2023/11/28 08:17:16;;;;;;;2.70;2.50;;;;;;;1.14;100.00;98702.72;5065488;28;20133;-69
2023/11/28 08:19:46;;;;;;;3.10;2.75;;;;;;;1.05;100.00;98701.28;5084269;28;20063;-69
2023/11/28 08:22:17;;;;;;;4.53;2.60;;;;;;;1.06;100.00;98703.00;5065002;28;20048;-68
2023/11/28 08:24:46;;;;;;;2.88;2.65;;;;;;;1.14;100.00;98724.41;5069650;28;20063;-70
2023/11/28 08:27:18;;;;;;;2.42;2.22;;;;;;;1.16;100.00;98703.50;5070828;28;20047;-68
2023/11/28 08:29:47;;;;;;;4.38;2.65;;;;;;;1.24;100.00;98722.34;5067721;28;20598;-70
2023/11/28 08:32:17;;;;;;;2.80;2.60;;;;;;;1.34;100.00;98728.94;5062115;28;20037;-70
2023/11/28 08:34:47;;;;;;;2.60;2.40;;;;;;;1.25;100.00;98721.44;5069903;28;20127;-70
2023/11/28 08:37:16;;;;;;;2.53;2.10;;;;;;;1.22;100.00;98718.94;5087066;28;20051;-69
2023/11/28 08:39:44;;;;;;;2.47;2.28;;;;;;;1.33;100.00;98742.88;5070272;28;20118;-69
2023/11/28 08:42:12;;;;;;;2.70;2.50;;;;;;;1.38;100.00;98744.41;5059591;28;20106;-69
2023/11/28 08:44:42;;;;;;;2.88;2.67;;;;;;;1.38;100.00;98754.00;5074033;28;20037;-70
2023/11/28 08:47:11;;;;;;;2.60;2.40;;;;;;;1.35;100.00;98756.72;5075918;28;20088;-68
2023/11/28 08:49:43;;;;;;;3.13;2.50;;;;;;;1.33;100.00;98769.81;5083503;28;20056;-70
2023/11/28 08:52:14;;;;;;;3.50;2.92;;;;;;;1.29;100.00;98775.16;5060933;28;20496;-69
2023/11/28 08:54:42;;;;;;;2.45;2.25;;;;;;;1.30;100.00;98782.94;5054154;28;20064;-68
2023/11/28 08:57:13;;;;;;;2.30;2.10;;;;;;;1.11;100.00;98775.81;5073937;28;20051;-70
2023/11/28 08:59:43;;;;;;;3.15;2.85;;;;;;;1.26;100.00;98809.19;5066625;28;20060;-68
2023/11/28 09:02:14;;;;;;;3.20;2.83;;;;;;;1.28;100.00;98820.41;5063905;28;20486;-69
2023/11/28 09:04:48;;;;;;;3.20;2.95;;;;;;;1.25;100.00;98820.53;5054994;28;20048;-69
2023/11/28 09:07:19;;;;;;;3.50;3.20;;;;;;;1.18;100.00;98827.69;5085862;28;20045;-69
2023/11/28 09:09:49;;;;;;;4.88;3.22;;;;;;;1.16;100.00;98837.31;5076651;28;20064;-70
2023/11/28 09:12:20;;;;;;;3.45;3.15;;;;;;;1.19;100.00;98852.88;5063809;28;20049;-70
2023/11/28 09:14:50;;;;;;;5.13;3.40;;;;;;;1.15;100.00;98855.63;5103635;28;20071;-69
2023/11/28 09:17:23;;;;;;;3.42;3.13;;;;;;;1.14;100.00;98865.19;5074163;28;20056;-69
2023/11/28 09:19:52;;;;;;;4.40;4.00;;;;;;;1.18;100.00;98868.56;5059373;28;20083;-68
2023/11/28 09:22:23;;;;;;;4.18;3.60;;;;;;;1.21;100.00;98865.84;5072358;28;20047;-70
2023/11/28 09:24:54;;;;;;;4.05;3.60;;;;;;;1.30;100.00;98882.03;5074896;28;20098;-68
2023/11/28 09:27:23;;;;;;;4.10;3.70;;;;;;;1.40;100.00;98887.81;5070208;28;20071;-69
2023/11/28 09:29:57;;;;;;;3.75;3.30;;;;;;;1.40;100.00;98893.03;5072873;28;20559;-69
2023/11/28 09:32:27;;;;;;;3.90;3.42;;;;;;;1.31;100.00;98893.31;5061752;28;20040;-69
2023/11/28 09:34:55;;;;;;;3.38;3.08;;;;;;;1.30;100.00;98891.63;5068726;28;20148;-69
2023/11/28 09:37:25;;;;;;;3.97;3.30;;;;;;;1.29;100.00;98901.19;5070842;28;20518;-69
2023/11/28 09:39:55;;;;;;;4.50;3.50;;;;;;;1.35;100.00;98913.19;5069724;28;20139;-69
2023/11/28 09:42:31;;;;;;;3.63;3.33;;;;;;;1.35;100.00;98915.78;5060109;28;20882;-69
2023/11/28 09:45:04;;;;;;;4.65;3.35;;;;;;;1.34;100.00;98914.94;5071073;28;20054;-68
2023/11/28 09:47:36;;;;;;;4.50;3.80;;;;;;;1.33;100.00;98912.38;5079106;28;20044;-69
2023/11/28 09:50:12;;;;;;;3.92;3.50;;;;;;;1.39;100.00;98926.09;5074354;28;20052;-68
2023/11/28 09:52:43;;;;;;;3.70;3.40;;;;;;;1.44;100.00;98930.25;5064747;28;20048;-69
2023/11/28 09:55:15;;;;;;;4.53;3.05;;;;;;;1.46;100.00;98939.75;5058890;28;20139;-68
2023/11/28 09:57:48;;;;;;;4.28;3.63;;;;;;;1.49;100.00;98933.59;5075219;28;20116;-68
2023/11/28 10:00:18;;;;;;;4.90;4.40;;;;;;;1.52;100.00;98939.56;5090220;28;20040;-70
2023/11/28 10:02:47;;;;;;;;;;;;;;;1.52;100.00;98939.56;5069913;28;20049;-69
2023/11/28 10:05:18;;;;;;;4.57;4.10;;;;;;;1.45;100.00;98945.88;5073879;28;19928;-70
2023/11/28 10:07:55;;;;;;;4.97;4.45;;;;;;;1.51;100.00;98950.03;5069332;28;20049;-67
2023/11/28 10:10:27;;;;;;;4.63;4.03;;;;;;;1.57;100.00;98942.03;5071325;28;20051;-69
2023/11/28 10:12:55;;;;;;;5.38;4.57;;;;;;;1.63;100.00;98953.09;5082430;28;20489;-68
2023/11/28 10:15:26;;;;;;;5.32;4.55;;;;;;;1.60;100.00;98949.72;5073842;28;20059;-69
2023/11/28 10:17:55;;;;;;;4.38;3.97;;;;;;;1.54;100.00;98942.97;5072136;28;20045;-71
2023/11/28 10:20:27;;;;;;;6.28;4.43;;;;;;;1.56;100.00;98943.78;5074239;28;20131;-69
2023/11/28 10:22:56;;;;;;;6.22;4.90;;;;;;;1.60;100.00;98957.53;5064222;28;20061;-69
2023/11/28 10:25:24;;;;;;;6.18;5.07;;;;;;;1.60;100.00;98947.09;5073435;28;20064;-70
2023/11/28 10:27:58;;;;;;;6.03;5.03;;;;;;;1.67;100.00;98965.13;5067695;28;20052;-70
2023/11/28 10:30:27;;;;;;;5.88;5.03;;;;;;;1.68;100.00;98973.81;5073434;28;20040;-70
2023/11/28 10:32:59;;;;;;;6.88;5.10;;;;;;;1.62;100.00;98967.03;5065164;28;20450;-68
2023/11/28 10:35:45;;;;;;;5.95;4.90;;;;;;;1.65;100.00;98987.81;5079623;28;20050;-69
2023/11/28 10:38:16;;;;;;;6.78;5.22;;;;;;;1.67;100.00;98987.75;5081460;28;20055;-69
2023/11/28 10:40:47;;;;;;;6.60;5.30;;;;;;;1.65;100.00;98979.97;5073767;28;20106;-71
2023/11/28 10:43:15;;;;;;;7.40;6.03;;;;;;;1.64;100.00;99001.75;5068186;28;20488;-69
2023/11/28 10:45:44;;;;;;;6.15;5.32;;;;;;;1.62;100.00;98995.72;5066571;28;20048;-69
2023/11/28 10:48:14;;;;;;;6.40;5.57;;;;;;;1.68;100.00;99002.50;5080035;28;20060;-69
2023/11/28 10:50:44;;;;;;;7.40;6.00;;;;;;;1.65;100.00;99006.06;5076728;28;20051;-69
2023/11/28 10:53:17;;;;;;;8.77;6.47;;;;;;;1.68;100.00;99011.19;5047422;28;20044;-69
2023/11/28 10:55:51;;;;;;;5.65;5.00;;;;;;;1.68;100.00;99007.72;5070263;28;20090;-69
2023/11/28 10:58:22;;;;;;;5.57;4.97;;;;;;;1.63;100.00;99012.25;5072967;28;20099;-69
2023/11/28 11:00:52;;;;;;;7.25;5.88;;;;;;;1.63;100.00;99014.84;5077421;28;20052;-70
2023/11/28 11:03:27;;;;;;;7.95;6.35;;;;;;;1.63;100.00;99020.06;5067924;28;20441;-67
2023/11/28 11:06:05;;;;;;;6.82;5.07;;;;;;;1.57;100.00;99013.31;5080704;28;20049;-68
2023/11/28 11:08:36;;;;;;;6.20;5.15;;;;;;;1.56;100.00;99014.22;5074298;28;20075;-69
2023/11/28 11:11:07;;;;;;;6.15;5.40;;;;;;;1.56;100.00;99019.44;5072852;28;20044;-69
2023/11/28 11:13:45;;;;;;;7.20;5.10;;;;;;;1.59;100.00;99013.25;5069265;28;20574;-68
2023/11/28 11:16:23;;;;;;;6.90;5.43;;;;;;;1.63;100.00;99020.94;5074899;28;20078;-70
2023/11/28 11:18:59;;;;;;;5.25;4.72;;;;;;;1.65;100.00;99032.16;5068344;28;20056;-70
2023/11/28 11:21:32;;;;;;;6.18;4.53;;;;;;;1.59;100.00;99024.53;5054053;28;20747;-70
2023/11/28 11:24:02;;;;;;;5.47;4.38;;;;;;;1.57;100.00;99038.56;5062535;28;20095;-69
2023/11/28 11:26:34;;;;;;;5.70;5.13;;;;;;;1.53;100.00;99042.16;5070443;28;20146;-71
2023/11/28 11:29:18;;;;;;;6.70;5.28;;;;;;;1.54;100.00;99036.03;5067230;28;20071;-69
2023/11/28 11:31:48;;;;;;;6.87;5.57;;;;;;;1.55;100.00;99051.63;5069618;28;20582;-68
2023/11/28 11:34:33;;;;;;;6.10;5.25;;;;;;;1.56;100.00;99053.34;5063957;28;20070;-71
2023/11/28 11:37:09;;;;;;;6.85;5.50;;;;;;;1.52;100.00;99056.09;5071175;28;20041;-69
2023/11/28 11:39:48;;;;;;;6.53;5.85;;;;;;;1.54;100.00;99060.38;5060495;28;20040;-69
2023/11/28 11:42:18;;;;;;;7.95;6.47;;;;;;;1.50;100.00;99050.94;5084615;28;20049;-68
2023/11/28 11:44:48;;;;;;;5.00;4.22;;;;;;;1.57;100.00;99060.28;5099451;27;20055;-68
2023/11/28 11:47:26;;;;;;;8.50;5.70;;;;;;;1.52;100.00;99059.56;5052232;28;20120;-68